sensor_id;sensor_type;location;lat;lon;timestamp;temperature;humidity
652;DHT22;310;48.490;9.200;2022-07-29T00:02:12;23.40;65.10
652;DHT22;310;48.490;9.200;2022-07-29T00:04:38;23.50;64.80
652;DHT22;310;48.490;9.200;2022-07-29T00:07:04;23.40;64.30
652;DHT22;310;48.490;9.200;2022-07-29T00:09:30;23.30;64.80
652;DHT22;310;48.490;9.200;2022-07-29T00:11:59;23.30;63.50
652;DHT22;310;48.490;9.200;2022-07-29T00:14:26;23.30;63.80
652;DHT22;310;48.490;9.200;2022-07-29T00:16:52;23.40;63.90
652;DHT22;310;48.490;9.200;2022-07-29T00:19:17;23.40;64.00
652;DHT22;310;48.490;9.200;2022-07-29T00:21:43;23.20;63.90
652;DHT22;310;48.490;9.200;2022-07-29T00:24:09;23.20;64.90
652;DHT22;310;48.490;9.200;2022-07-29T00:26:34;23.20;64.40
652;DHT22;310;48.490;9.200;2022-07-29T00:29:01;23.00;61.20
652;DHT22;310;48.490;9.200;2022-07-29T00:31:27;22.90;61.90
652;DHT22;310;48.490;9.200;2022-07-29T00:33:53;22.80;63.50
652;DHT22;310;48.490;9.200;2022-07-29T00:36:19;22.70;63.60
652;DHT22;310;48.490;9.200;2022-07-29T00:38:49;22.50;67.50
652;DHT22;310;48.490;9.200;2022-07-29T00:41:15;22.00;66.60
652;DHT22;310;48.490;9.200;2022-07-29T00:43:42;22.20;69.00
652;DHT22;310;48.490;9.200;2022-07-29T00:46:07;22.50;67.10
652;DHT22;310;48.490;9.200;2022-07-29T00:48:33;22.20;64.50
652;DHT22;310;48.490;9.200;2022-07-29T00:51:01;22.20;64.80
652;DHT22;310;48.490;9.200;2022-07-29T00:55:56;22.80;64.50
652;DHT22;310;48.490;9.200;2022-07-29T00:58:23;23.00;63.00
652;DHT22;310;48.490;9.200;2022-07-29T01:00:49;23.10;62.60
652;DHT22;310;48.490;9.200;2022-07-29T01:03:15;23.00;62.70
652;DHT22;310;48.490;9.200;2022-07-29T01:05:43;23.10;62.80
652;DHT22;310;48.490;9.200;2022-07-29T01:08:11;23.10;61.90
652;DHT22;310;48.490;9.200;2022-07-29T01:10:38;23.00;62.00
652;DHT22;310;48.490;9.200;2022-07-29T01:13:05;23.00;61.80
652;DHT22;310;48.490;9.200;2022-07-29T01:15:32;22.90;64.20
652;DHT22;310;48.490;9.200;2022-07-29T01:29:19;22.10;66.70
652;DHT22;310;48.490;9.200;2022-07-29T01:31:54;22.40;64.00
652;DHT22;310;48.490;9.200;2022-07-29T01:37:32;22.80;62.00
652;DHT22;310;48.490;9.200;2022-07-29T01:39:59;22.90;63.10
652;DHT22;310;48.490;9.200;2022-07-29T01:42:39;22.70;59.80
652;DHT22;310;48.490;9.200;2022-07-29T01:45:39;22.50;57.80
652;DHT22;310;48.490;9.200;2022-07-29T01:50:52;22.80;63.90
652;DHT22;310;48.490;9.200;2022-07-29T01:53:35;22.70;62.40
652;DHT22;310;48.490;9.200;2022-07-29T01:56:03;22.70;63.10
652;DHT22;310;48.490;9.200;2022-07-29T01:58:31;22.60;63.90
652;DHT22;310;48.490;9.200;2022-07-29T02:00:58;22.70;62.20
652;DHT22;310;48.490;9.200;2022-07-29T02:03:25;22.70;62.40
652;DHT22;310;48.490;9.200;2022-07-29T02:05:53;22.70;62.40
652;DHT22;310;48.490;9.200;2022-07-29T02:08:19;22.80;62.20
652;DHT22;310;48.490;9.200;2022-07-29T02:10:48;22.70;62.10
652;DHT22;310;48.490;9.200;2022-07-29T02:13:15;22.70;62.30
652;DHT22;310;48.490;9.200;2022-07-29T02:15:42;22.70;60.80
652;DHT22;310;48.490;9.200;2022-07-29T02:18:13;22.70;61.80
652;DHT22;310;48.490;9.200;2022-07-29T02:20:40;22.60;61.60
652;DHT22;310;48.490;9.200;2022-07-29T02:23:10;22.50;63.20
652;DHT22;310;48.490;9.200;2022-07-29T02:25:37;22.50;63.80
652;DHT22;310;48.490;9.200;2022-07-29T02:28:05;22.70;61.20
652;DHT22;310;48.490;9.200;2022-07-29T02:30:31;22.60;62.10
652;DHT22;310;48.490;9.200;2022-07-29T02:32:58;22.70;61.10
652;DHT22;310;48.490;9.200;2022-07-29T02:35:25;22.70;61.70
652;DHT22;310;48.490;9.200;2022-07-29T02:37:52;22.70;61.50
652;DHT22;310;48.490;9.200;2022-07-29T02:40:38;22.30;59.80
652;DHT22;310;48.490;9.200;2022-07-29T02:43:06;22.30;60.90
652;DHT22;310;48.490;9.200;2022-07-29T02:45:33;22.50;61.50
652;DHT22;310;48.490;9.200;2022-07-29T02:48:03;22.70;60.70
652;DHT22;310;48.490;9.200;2022-07-29T02:50:37;22.70;60.70
652;DHT22;310;48.490;9.200;2022-07-29T02:53:16;22.80;59.90
652;DHT22;310;48.490;9.200;2022-07-29T02:55:46;22.80;60.70
652;DHT22;310;48.490;9.200;2022-07-29T02:58:31;22.80;61.10
652;DHT22;310;48.490;9.200;2022-07-29T03:01:02;22.90;57.50
652;DHT22;310;48.490;9.200;2022-07-29T03:03:32;22.90;59.40
652;DHT22;310;48.490;9.200;2022-07-29T03:06:00;22.70;60.70
652;DHT22;310;48.490;9.200;2022-07-29T03:08:27;22.70;61.60
652;DHT22;310;48.490;9.200;2022-07-29T03:10:55;22.70;60.60
652;DHT22;310;48.490;9.200;2022-07-29T03:13:21;22.70;60.00
652;DHT22;310;48.490;9.200;2022-07-29T03:15:47;22.70;60.90
652;DHT22;310;48.490;9.200;2022-07-29T03:18:14;22.60;61.20
652;DHT22;310;48.490;9.200;2022-07-29T03:20:40;22.70;60.80
652;DHT22;310;48.490;9.200;2022-07-29T03:23:06;22.70;59.80
652;DHT22;310;48.490;9.200;2022-07-29T03:25:32;22.70;60.70
652;DHT22;310;48.490;9.200;2022-07-29T03:27:59;22.70;60.30
652;DHT22;310;48.490;9.200;2022-07-29T03:30:24;22.70;60.30
652;DHT22;310;48.490;9.200;2022-07-29T03:32:51;22.80;54.60
652;DHT22;310;48.490;9.200;2022-07-29T03:35:17;22.80;55.20
652;DHT22;310;48.490;9.200;2022-07-29T03:37:44;22.90;56.80
652;DHT22;310;48.490;9.200;2022-07-29T03:40:12;22.90;57.40
652;DHT22;310;48.490;9.200;2022-07-29T03:42:40;22.90;54.10
652;DHT22;310;48.490;9.200;2022-07-29T03:45:10;22.90;54.60
652;DHT22;310;48.490;9.200;2022-07-29T03:47:40;23.00;52.80
652;DHT22;310;48.490;9.200;2022-07-29T03:50:08;23.00;53.30
652;DHT22;310;48.490;9.200;2022-07-29T03:52:36;23.00;53.40
652;DHT22;310;48.490;9.200;2022-07-29T03:55:03;22.80;56.80
652;DHT22;310;48.490;9.200;2022-07-29T03:57:30;22.60;57.90
652;DHT22;310;48.490;9.200;2022-07-29T03:59:57;22.40;59.50
652;DHT22;310;48.490;9.200;2022-07-29T04:02:24;22.20;59.30
652;DHT22;310;48.490;9.200;2022-07-29T04:04:51;22.20;60.70
652;DHT22;310;48.490;9.200;2022-07-29T04:07:17;22.30;61.20
652;DHT22;310;48.490;9.200;2022-07-29T04:09:43;22.20;60.70
652;DHT22;310;48.490;9.200;2022-07-29T04:12:09;22.10;61.30
652;DHT22;310;48.490;9.200;2022-07-29T04:14:35;22.10;61.40
652;DHT22;310;48.490;9.200;2022-07-29T04:17:03;22.20;61.20
652;DHT22;310;48.490;9.200;2022-07-29T04:19:29;22.20;61.20
652;DHT22;310;48.490;9.200;2022-07-29T04:21:55;22.20;61.30
652;DHT22;310;48.490;9.200;2022-07-29T04:24:21;21.90;62.10
652;DHT22;310;48.490;9.200;2022-07-29T04:26:47;22.10;64.20
652;DHT22;310;48.490;9.200;2022-07-29T04:29:13;22.10;60.00
652;DHT22;310;48.490;9.200;2022-07-29T04:31:40;21.40;64.40
652;DHT22;310;48.490;9.200;2022-07-29T04:34:06;20.90;69.70
652;DHT22;310;48.490;9.200;2022-07-29T04:36:32;20.80;70.50
652;DHT22;310;48.490;9.200;2022-07-29T04:38:57;21.60;67.50
652;DHT22;310;48.490;9.200;2022-07-29T04:43:49;22.00;63.70
652;DHT22;310;48.490;9.200;2022-07-29T04:46:14;21.80;64.10
652;DHT22;310;48.490;9.200;2022-07-29T04:48:40;22.00;63.50
652;DHT22;310;48.490;9.200;2022-07-29T04:51:05;22.00;62.90
652;DHT22;310;48.490;9.200;2022-07-29T04:53:31;22.00;61.90
652;DHT22;310;48.490;9.200;2022-07-29T04:55:57;21.70;64.60
652;DHT22;310;48.490;9.200;2022-07-29T04:58:22;21.70;65.30
652;DHT22;310;48.490;9.200;2022-07-29T05:00:49;21.80;64.60
652;DHT22;310;48.490;9.200;2022-07-29T05:05:41;22.10;64.80
652;DHT22;310;48.490;9.200;2022-07-29T05:08:07;22.10;63.30
652;DHT22;310;48.490;9.200;2022-07-29T05:10:33;22.20;62.40
652;DHT22;310;48.490;9.200;2022-07-29T05:13:06;22.20;60.70
652;DHT22;310;48.490;9.200;2022-07-29T05:15:34;21.90;63.30
652;DHT22;310;48.490;9.200;2022-07-29T05:18:00;22.00;63.80
652;DHT22;310;48.490;9.200;2022-07-29T05:20:26;21.90;64.00
652;DHT22;310;48.490;9.200;2022-07-29T05:22:57;21.70;65.00
652;DHT22;310;48.490;9.200;2022-07-29T05:25:24;21.50;66.60
652;DHT22;310;48.490;9.200;2022-07-29T05:27:50;21.10;68.90
652;DHT22;310;48.490;9.200;2022-07-29T05:30:16;21.20;69.00
652;DHT22;310;48.490;9.200;2022-07-29T05:32:42;21.20;70.00
652;DHT22;310;48.490;9.200;2022-07-29T05:37:33;21.10;71.20
652;DHT22;310;48.490;9.200;2022-07-29T05:39:59;21.10;71.40
652;DHT22;310;48.490;9.200;2022-07-29T05:42:25;20.90;74.50
652;DHT22;310;48.490;9.200;2022-07-29T05:44:53;21.00;72.50
652;DHT22;310;48.490;9.200;2022-07-29T05:47:19;21.60;68.70
652;DHT22;310;48.490;9.200;2022-07-29T05:49:45;22.00;65.90
652;DHT22;310;48.490;9.200;2022-07-29T05:52:11;22.30;65.80
652;DHT22;310;48.490;9.200;2022-07-29T05:54:38;22.90;62.60
652;DHT22;310;48.490;9.200;2022-07-29T05:57:05;22.90;62.20
652;DHT22;310;48.490;9.200;2022-07-29T05:59:31;22.90;59.90
652;DHT22;310;48.490;9.200;2022-07-29T06:01:57;22.80;60.60
652;DHT22;310;48.490;9.200;2022-07-29T06:04:23;22.80;59.50
652;DHT22;310;48.490;9.200;2022-07-29T06:06:48;22.70;59.30
652;DHT22;310;48.490;9.200;2022-07-29T06:09:14;22.70;62.20
652;DHT22;310;48.490;9.200;2022-07-29T06:11:40;22.70;58.30
652;DHT22;310;48.490;9.200;2022-07-29T06:14:06;22.40;61.10
652;DHT22;310;48.490;9.200;2022-07-29T06:16:31;22.80;60.50
652;DHT22;310;48.490;9.200;2022-07-29T06:18:57;22.80;61.20
652;DHT22;310;48.490;9.200;2022-07-29T06:21:22;23.10;60.70
652;DHT22;310;48.490;9.200;2022-07-29T06:23:48;23.30;57.30
652;DHT22;310;48.490;9.200;2022-07-29T06:28:40;23.50;55.40
652;DHT22;310;48.490;9.200;2022-07-29T06:31:05;23.50;55.40
652;DHT22;310;48.490;9.200;2022-07-29T06:33:31;23.50;55.50
652;DHT22;310;48.490;9.200;2022-07-29T06:35:56;23.90;53.20
652;DHT22;310;48.490;9.200;2022-07-29T06:38:22;23.70;57.80
652;DHT22;310;48.490;9.200;2022-07-29T06:40:48;23.70;58.10
652;DHT22;310;48.490;9.200;2022-07-29T06:43:27;22.80;59.90
652;DHT22;310;48.490;9.200;2022-07-29T06:45:54;22.80;60.20
652;DHT22;310;48.490;9.200;2022-07-29T06:48:19;22.60;61.20
652;DHT22;310;48.490;9.200;2022-07-29T06:50:45;22.60;61.40
652;DHT22;310;48.490;9.200;2022-07-29T06:53:11;23.30;57.30
652;DHT22;310;48.490;9.200;2022-07-29T06:55:36;23.20;57.90
652;DHT22;310;48.490;9.200;2022-07-29T06:58:02;23.50;56.20
652;DHT22;310;48.490;9.200;2022-07-29T07:00:28;24.00;59.60
652;DHT22;310;48.490;9.200;2022-07-29T07:02:53;24.30;51.90
652;DHT22;310;48.490;9.200;2022-07-29T07:05:19;23.80;53.20
652;DHT22;310;48.490;9.200;2022-07-29T07:07:45;23.40;57.60
652;DHT22;310;48.490;9.200;2022-07-29T07:12:36;23.40;57.00
652;DHT22;310;48.490;9.200;2022-07-29T07:15:02;24.50;51.70
652;DHT22;310;48.490;9.200;2022-07-29T07:17:28;24.60;52.10
652;DHT22;310;48.490;9.200;2022-07-29T07:19:54;24.90;48.20
652;DHT22;310;48.490;9.200;2022-07-29T07:22:19;25.10;49.70
652;DHT22;310;48.490;9.200;2022-07-29T07:24:45;25.10;52.90
652;DHT22;310;48.490;9.200;2022-07-29T07:27:11;25.20;51.00
652;DHT22;310;48.490;9.200;2022-07-29T07:32:06;25.40;43.30
652;DHT22;310;48.490;9.200;2022-07-29T07:34:32;25.30;43.50
652;DHT22;310;48.490;9.200;2022-07-29T07:36:58;25.10;44.60
652;DHT22;310;48.490;9.200;2022-07-29T07:39:23;25.10;47.30
652;DHT22;310;48.490;9.200;2022-07-29T07:41:50;25.30;48.50
652;DHT22;310;48.490;9.200;2022-07-29T07:44:15;25.40;46.80
652;DHT22;310;48.490;9.200;2022-07-29T07:46:41;25.60;46.10
652;DHT22;310;48.490;9.200;2022-07-29T07:49:06;25.30;42.70
652;DHT22;310;48.490;9.200;2022-07-29T07:51:32;24.90;46.50
652;DHT22;310;48.490;9.200;2022-07-29T07:53:58;24.90;45.60
652;DHT22;310;48.490;9.200;2022-07-29T07:56:23;25.40;46.50
652;DHT22;310;48.490;9.200;2022-07-29T07:58:49;25.90;39.60
652;DHT22;310;48.490;9.200;2022-07-29T08:01:14;25.90;40.10
652;DHT22;310;48.490;9.200;2022-07-29T08:03:44;26.10;40.50
652;DHT22;310;48.490;9.200;2022-07-29T08:06:09;25.90;39.20
652;DHT22;310;48.490;9.200;2022-07-29T08:08:35;26.10;35.30
652;DHT22;310;48.490;9.200;2022-07-29T08:11:01;25.50;38.80
652;DHT22;310;48.490;9.200;2022-07-29T08:13:27;25.90;35.70
652;DHT22;310;48.490;9.200;2022-07-29T08:15:54;25.80;35.00
652;DHT22;310;48.490;9.200;2022-07-29T08:18:28;25.60;38.00
652;DHT22;310;48.490;9.200;2022-07-29T08:20:55;25.60;34.50
652;DHT22;310;48.490;9.200;2022-07-29T08:23:20;25.10;36.20
652;DHT22;310;48.490;9.200;2022-07-29T08:25:46;24.80;36.80
652;DHT22;310;48.490;9.200;2022-07-29T08:28:12;24.50;36.00
652;DHT22;310;48.490;9.200;2022-07-29T08:30:37;24.70;35.20
652;DHT22;310;48.490;9.200;2022-07-29T08:33:03;24.80;35.50
652;DHT22;310;48.490;9.200;2022-07-29T08:35:29;25.70;35.00
652;DHT22;310;48.490;9.200;2022-07-29T08:37:54;25.80;34.00
652;DHT22;310;48.490;9.200;2022-07-29T08:40:22;25.70;34.40
652;DHT22;310;48.490;9.200;2022-07-29T08:42:49;25.50;32.30
652;DHT22;310;48.490;9.200;2022-07-29T08:45:15;25.80;32.40
652;DHT22;310;48.490;9.200;2022-07-29T08:47:41;25.90;32.70
652;DHT22;310;48.490;9.200;2022-07-29T08:50:08;26.40;30.80
652;DHT22;310;48.490;9.200;2022-07-29T08:52:39;26.70;30.10
652;DHT22;310;48.490;9.200;2022-07-29T08:55:06;26.40;29.90
652;DHT22;310;48.490;9.200;2022-07-29T08:57:33;25.20;32.80
652;DHT22;310;48.490;9.200;2022-07-29T09:00:00;25.50;33.20
652;DHT22;310;48.490;9.200;2022-07-29T09:02:28;25.60;32.10
652;DHT22;310;48.490;9.200;2022-07-29T09:04:56;26.20;31.70
652;DHT22;310;48.490;9.200;2022-07-29T09:07:23;26.40;31.10
652;DHT22;310;48.490;9.200;2022-07-29T09:09:49;25.90;31.60
652;DHT22;310;48.490;9.200;2022-07-29T09:12:15;26.40;29.90
652;DHT22;310;48.490;9.200;2022-07-29T09:14:42;25.90;31.60
652;DHT22;310;48.490;9.200;2022-07-29T09:17:08;26.00;31.60
652;DHT22;310;48.490;9.200;2022-07-29T09:19:35;26.20;30.50
652;DHT22;310;48.490;9.200;2022-07-29T09:22:03;26.80;30.60
652;DHT22;310;48.490;9.200;2022-07-29T09:24:41;27.30;29.40
652;DHT22;310;48.490;9.200;2022-07-29T09:27:11;27.60;28.10
652;DHT22;310;48.490;9.200;2022-07-29T09:29:42;27.40;28.20
652;DHT22;310;48.490;9.200;2022-07-29T09:32:09;27.30;29.10
652;DHT22;310;48.490;9.200;2022-07-29T09:34:36;26.20;30.20
652;DHT22;310;48.490;9.200;2022-07-29T09:37:02;26.00;31.60
652;DHT22;310;48.490;9.200;2022-07-29T09:39:36;25.90;32.20
652;DHT22;310;48.490;9.200;2022-07-29T09:42:05;26.00;31.10
652;DHT22;310;48.490;9.200;2022-07-29T09:47:06;26.60;31.50
652;DHT22;310;48.490;9.200;2022-07-29T09:49:34;26.30;32.10
652;DHT22;310;48.490;9.200;2022-07-29T09:52:04;26.80;30.00
652;DHT22;310;48.490;9.200;2022-07-29T09:54:30;26.70;30.50
652;DHT22;310;48.490;9.200;2022-07-29T09:57:02;26.60;30.40
652;DHT22;310;48.490;9.200;2022-07-29T09:59:28;26.60;30.10
652;DHT22;310;48.490;9.200;2022-07-29T10:01:54;23.70;27.60
652;DHT22;310;48.490;9.200;2022-07-29T10:04:20;27.10;29.70
652;DHT22;310;48.490;9.200;2022-07-29T10:06:57;28.10;28.20
652;DHT22;310;48.490;9.200;2022-07-29T10:09:23;27.70;27.30
652;DHT22;310;48.490;9.200;2022-07-29T10:12:12;27.10;29.10
652;DHT22;310;48.490;9.200;2022-07-29T10:14:41;27.40;29.00
652;DHT22;310;48.490;9.200;2022-07-29T10:17:08;27.20;28.90
652;DHT22;310;48.490;9.200;2022-07-29T10:19:36;27.60;28.30
652;DHT22;310;48.490;9.200;2022-07-29T10:22:04;27.70;27.20
652;DHT22;310;48.490;9.200;2022-07-29T10:24:30;28.00;27.10
652;DHT22;310;48.490;9.200;2022-07-29T10:26:58;27.50;27.80
652;DHT22;310;48.490;9.200;2022-07-29T10:29:25;27.90;28.30
652;DHT22;310;48.490;9.200;2022-07-29T10:43:32;28.60;25.60
652;DHT22;310;48.490;9.200;2022-07-29T10:46:01;28.50;25.30
652;DHT22;310;48.490;9.200;2022-07-29T10:48:27;29.00;25.60
652;DHT22;310;48.490;9.200;2022-07-29T10:50:59;29.60;26.50
652;DHT22;310;48.490;9.200;2022-07-29T10:53:47;29.20;24.50
652;DHT22;310;48.490;9.200;2022-07-29T10:56:29;29.10;27.00
652;DHT22;310;48.490;9.200;2022-07-29T11:01:44;30.40;23.70
652;DHT22;310;48.490;9.200;2022-07-29T11:04:09;30.60;24.20
652;DHT22;310;48.490;9.200;2022-07-29T11:09:25;29.50;23.50
652;DHT22;310;48.490;9.200;2022-07-29T11:11:51;29.80;24.20
652;DHT22;310;48.490;9.200;2022-07-29T11:14:18;29.80;23.10
652;DHT22;310;48.490;9.200;2022-07-29T11:17:02;29.30;24.50
652;DHT22;310;48.490;9.200;2022-07-29T11:19:28;28.60;25.20
652;DHT22;310;48.490;9.200;2022-07-29T11:21:53;29.20;24.90
652;DHT22;310;48.490;9.200;2022-07-29T11:24:29;29.80;23.30
652;DHT22;310;48.490;9.200;2022-07-29T11:29:57;30.40;23.90
652;DHT22;310;48.490;9.200;2022-07-29T11:32:24;30.10;22.20
652;DHT22;310;48.490;9.200;2022-07-29T11:37:38;29.80;22.90
652;DHT22;310;48.490;9.200;2022-07-29T11:45:07;26.70;28.60
652;DHT22;310;48.490;9.200;2022-07-29T11:47:49;26.70;30.00
652;DHT22;310;48.490;9.200;2022-07-29T11:50:18;26.50;29.30
652;DHT22;310;48.490;9.200;2022-07-29T11:52:51;26.70;30.30
652;DHT22;310;48.490;9.200;2022-07-29T11:55:19;27.60;28.60
652;DHT22;310;48.490;9.200;2022-07-29T11:58:03;28.10;26.80
652;DHT22;310;48.490;9.200;2022-07-29T12:03:00;27.80;29.50
652;DHT22;310;48.490;9.200;2022-07-29T12:05:42;28.80;27.50
652;DHT22;310;48.490;9.200;2022-07-29T12:08:15;28.90;25.80
652;DHT22;310;48.490;9.200;2022-07-29T12:10:44;29.10;27.50
652;DHT22;310;48.490;9.200;2022-07-29T12:13:11;29.00;26.90
652;DHT22;310;48.490;9.200;2022-07-29T12:15:37;28.90;28.10
652;DHT22;310;48.490;9.200;2022-07-29T12:18:17;28.70;29.70
652;DHT22;310;48.490;9.200;2022-07-29T12:20:44;28.10;29.30
652;DHT22;310;48.490;9.200;2022-07-29T12:23:10;28.10;30.30
652;DHT22;310;48.490;9.200;2022-07-29T12:25:41;27.90;30.40
652;DHT22;310;48.490;9.200;2022-07-29T12:28:09;27.60;31.40
652;DHT22;310;48.490;9.200;2022-07-29T12:30:44;27.40;34.60
652;DHT22;310;48.490;9.200;2022-07-29T12:35:47;26.90;34.70
652;DHT22;310;48.490;9.200;2022-07-29T12:38:13;26.80;35.40
652;DHT22;310;48.490;9.200;2022-07-29T12:40:39;27.00;34.50
652;DHT22;310;48.490;9.200;2022-07-29T12:45:36;26.90;43.10
652;DHT22;310;48.490;9.200;2022-07-29T12:48:02;26.60;45.10
652;DHT22;310;48.490;9.200;2022-07-29T12:50:28;26.70;42.10
652;DHT22;310;48.490;9.200;2022-07-29T12:52:54;26.70;43.50
652;DHT22;310;48.490;9.200;2022-07-29T12:55:43;26.60;42.30
652;DHT22;310;48.490;9.200;2022-07-29T12:58:25;26.80;43.60
652;DHT22;310;48.490;9.200;2022-07-29T13:01:00;26.80;46.60
652;DHT22;310;48.490;9.200;2022-07-29T13:03:25;27.00;45.10
652;DHT22;310;48.490;9.200;2022-07-29T13:05:51;27.50;43.10
652;DHT22;310;48.490;9.200;2022-07-29T13:08:17;27.90;38.80
652;DHT22;310;48.490;9.200;2022-07-29T13:10:46;27.90;40.70
652;DHT22;310;48.490;9.200;2022-07-29T13:13:14;27.60;41.00
652;DHT22;310;48.490;9.200;2022-07-29T13:15:44;27.20;43.20
652;DHT22;310;48.490;9.200;2022-07-29T13:18:29;27.30;45.30
652;DHT22;310;48.490;9.200;2022-07-29T13:20:55;27.00;45.60
652;DHT22;310;48.490;9.200;2022-07-29T13:23:21;27.20;46.60
652;DHT22;310;48.490;9.200;2022-07-29T13:25:47;27.50;45.50
652;DHT22;310;48.490;9.200;2022-07-29T13:28:13;27.70;44.80
652;DHT22;310;48.490;9.200;2022-07-29T13:30:39;27.90;44.20
652;DHT22;310;48.490;9.200;2022-07-29T13:33:06;28.00;41.50
652;DHT22;310;48.490;9.200;2022-07-29T13:35:32;27.70;40.50
652;DHT22;310;48.490;9.200;2022-07-29T13:37:57;27.70;37.80
652;DHT22;310;48.490;9.200;2022-07-29T13:40:23;27.00;37.90
652;DHT22;310;48.490;9.200;2022-07-29T13:42:49;26.00;38.60
652;DHT22;310;48.490;9.200;2022-07-29T13:45:15;26.20;39.60
652;DHT22;310;48.490;9.200;2022-07-29T13:47:41;27.00;38.40
652;DHT22;310;48.490;9.200;2022-07-29T13:50:08;26.40;34.90
652;DHT22;310;48.490;9.200;2022-07-29T13:52:35;26.20;36.80
652;DHT22;310;48.490;9.200;2022-07-29T13:55:02;27.00;35.90
652;DHT22;310;48.490;9.200;2022-07-29T13:57:28;27.60;35.40
652;DHT22;310;48.490;9.200;2022-07-29T13:59:54;27.80;34.40
652;DHT22;310;48.490;9.200;2022-07-29T14:02:20;28.00;34.70
652;DHT22;310;48.490;9.200;2022-07-29T14:04:46;28.10;32.50
652;DHT22;310;48.490;9.200;2022-07-29T14:07:12;28.00;32.90
652;DHT22;310;48.490;9.200;2022-07-29T14:09:38;27.90;31.70
652;DHT22;310;48.490;9.200;2022-07-29T14:12:04;27.80;33.10
652;DHT22;310;48.490;9.200;2022-07-29T14:14:29;27.80;32.40
652;DHT22;310;48.490;9.200;2022-07-29T14:16:56;27.80;32.60
652;DHT22;310;48.490;9.200;2022-07-29T14:19:22;27.90;31.40
652;DHT22;310;48.490;9.200;2022-07-29T14:21:48;28.00;33.20
652;DHT22;310;48.490;9.200;2022-07-29T14:24:13;27.90;31.40
652;DHT22;310;48.490;9.200;2022-07-29T14:26:39;27.90;32.20
652;DHT22;310;48.490;9.200;2022-07-29T14:29:04;27.90;31.00
652;DHT22;310;48.490;9.200;2022-07-29T14:31:30;27.90;32.40
652;DHT22;310;48.490;9.200;2022-07-29T14:33:56;27.70;33.90
652;DHT22;310;48.490;9.200;2022-07-29T14:36:21;27.40;32.70
652;DHT22;310;48.490;9.200;2022-07-29T14:38:47;25.50;33.40
652;DHT22;310;48.490;9.200;2022-07-29T14:41:12;27.50;34.50
652;DHT22;310;48.490;9.200;2022-07-29T14:43:38;27.50;34.00
652;DHT22;310;48.490;9.200;2022-07-29T14:46:04;27.50;34.50
652;DHT22;310;48.490;9.200;2022-07-29T14:48:29;27.50;35.10
652;DHT22;310;48.490;9.200;2022-07-29T14:50:55;27.50;36.50
652;DHT22;310;48.490;9.200;2022-07-29T14:53:22;27.40;37.60
652;DHT22;310;48.490;9.200;2022-07-29T14:55:47;27.50;34.10
652;DHT22;310;48.490;9.200;2022-07-29T14:58:13;27.70;35.90
652;DHT22;310;48.490;9.200;2022-07-29T15:00:39;27.60;34.90
652;DHT22;310;48.490;9.200;2022-07-29T15:03:05;27.60;34.20
652;DHT22;310;48.490;9.200;2022-07-29T15:05:31;27.30;36.20
652;DHT22;310;48.490;9.200;2022-07-29T15:07:57;27.50;35.10
652;DHT22;310;48.490;9.200;2022-07-29T15:10:24;27.50;35.70
652;DHT22;310;48.490;9.200;2022-07-29T15:12:52;27.40;33.30
652;DHT22;310;48.490;9.200;2022-07-29T15:15:18;27.40;34.00
652;DHT22;310;48.490;9.200;2022-07-29T15:17:43;27.40;34.50
652;DHT22;310;48.490;9.200;2022-07-29T15:20:09;27.50;35.10
652;DHT22;310;48.490;9.200;2022-07-29T15:22:36;27.70;36.80
652;DHT22;310;48.490;9.200;2022-07-29T15:25:04;27.60;36.20
652;DHT22;310;48.490;9.200;2022-07-29T15:27:29;27.60;36.70
652;DHT22;310;48.490;9.200;2022-07-29T15:29:56;27.70;34.70
652;DHT22;310;48.490;9.200;2022-07-29T15:32:21;27.70;33.80
652;DHT22;310;48.490;9.200;2022-07-29T15:34:47;27.70;33.60
652;DHT22;310;48.490;9.200;2022-07-29T15:37:12;27.80;32.70
652;DHT22;310;48.490;9.200;2022-07-29T15:39:38;27.90;31.30
652;DHT22;310;48.490;9.200;2022-07-29T15:42:04;27.90;33.30
652;DHT22;310;48.490;9.200;2022-07-29T15:46:55;28.00;33.30
652;DHT22;310;48.490;9.200;2022-07-29T15:49:38;28.10;32.70
652;DHT22;310;48.490;9.200;2022-07-29T15:52:06;28.20;31.60
652;DHT22;310;48.490;9.200;2022-07-29T15:54:33;28.10;32.70
652;DHT22;310;48.490;9.200;2022-07-29T15:56:59;28.20;32.20
652;DHT22;310;48.490;9.200;2022-07-29T15:59:25;28.20;30.90
652;DHT22;310;48.490;9.200;2022-07-29T16:01:51;28.20;30.90
652;DHT22;310;48.490;9.200;2022-07-29T16:04:16;28.20;30.90
652;DHT22;310;48.490;9.200;2022-07-29T16:11:34;28.40;31.90
652;DHT22;310;48.490;9.200;2022-07-29T16:14:00;28.20;31.00
652;DHT22;310;48.490;9.200;2022-07-29T16:16:26;28.10;31.60
652;DHT22;310;48.490;9.200;2022-07-29T16:18:52;28.30;30.00
652;DHT22;310;48.490;9.200;2022-07-29T16:23:43;28.60;29.10
652;DHT22;310;48.490;9.200;2022-07-29T16:26:09;28.40;29.40
652;DHT22;310;48.490;9.200;2022-07-29T16:43:11;28.30;28.30
652;DHT22;310;48.490;9.200;2022-07-29T16:45:37;28.30;30.10
652;DHT22;310;48.490;9.200;2022-07-29T16:48:03;28.50;29.80
652;DHT22;310;48.490;9.200;2022-07-29T16:50:29;28.50;27.30
652;DHT22;310;48.490;9.200;2022-07-29T16:57:48;28.40;28.20
652;DHT22;310;48.490;9.200;2022-07-29T17:00:15;28.30;28.20
652;DHT22;310;48.490;9.200;2022-07-29T17:02:41;28.30;28.40
652;DHT22;310;48.490;9.200;2022-07-29T17:05:07;28.20;28.70
652;DHT22;310;48.490;9.200;2022-07-29T17:07:33;28.20;28.10
652;DHT22;310;48.490;9.200;2022-07-29T17:09:59;28.20;28.60
652;DHT22;310;48.490;9.200;2022-07-29T17:12:26;28.20;28.80
652;DHT22;310;48.490;9.200;2022-07-29T17:14:51;28.20;28.80
652;DHT22;310;48.490;9.200;2022-07-29T17:17:17;28.10;29.00
652;DHT22;310;48.490;9.200;2022-07-29T17:19:43;28.10;29.10
652;DHT22;310;48.490;9.200;2022-07-29T17:24:34;28.10;30.00
652;DHT22;310;48.490;9.200;2022-07-29T17:27:00;28.20;30.00
652;DHT22;310;48.490;9.200;2022-07-29T17:29:26;28.10;30.30
652;DHT22;310;48.490;9.200;2022-07-29T17:31:52;28.20;29.30
652;DHT22;310;48.490;9.200;2022-07-29T17:34:17;28.20;27.80
652;DHT22;310;48.490;9.200;2022-07-29T17:36:43;28.30;27.60
652;DHT22;310;48.490;9.200;2022-07-29T17:39:09;28.40;26.90
652;DHT22;310;48.490;9.200;2022-07-29T17:49:01;28.20;27.70
652;DHT22;310;48.490;9.200;2022-07-29T17:56:20;28.20;27.10
652;DHT22;310;48.490;9.200;2022-07-29T18:01:12;28.00;27.30
652;DHT22;310;48.490;9.200;2022-07-29T18:03:38;27.90;29.00
652;DHT22;310;48.490;9.200;2022-07-29T18:06:05;28.00;27.10
652;DHT22;310;48.490;9.200;2022-07-29T18:08:30;28.00;27.90
652;DHT22;310;48.490;9.200;2022-07-29T18:10:56;28.00;25.80
652;DHT22;310;48.490;9.200;2022-07-29T18:13:22;28.00;26.20
652;DHT22;310;48.490;9.200;2022-07-29T18:18:14;27.70;26.20
652;DHT22;310;48.490;9.200;2022-07-29T18:20:41;27.80;26.00
652;DHT22;310;48.490;9.200;2022-07-29T18:23:08;27.90;27.50
652;DHT22;310;48.490;9.200;2022-07-29T18:25:34;28.00;25.70
652;DHT22;310;48.490;9.200;2022-07-29T18:28:00;27.90;27.90
652;DHT22;310;48.490;9.200;2022-07-29T18:30:26;27.70;25.90
652;DHT22;310;48.490;9.200;2022-07-29T18:32:52;27.80;25.90
652;DHT22;310;48.490;9.200;2022-07-29T18:35:17;27.90;26.70
652;DHT22;310;48.490;9.200;2022-07-29T18:40:10;27.40;28.70